Time;durP1;ratioP1;P1;durP2;ratioP2;P2;SDS_P1;SDS_P2;PMS_P1;PMS_P2;Temp;Humidity;BMP_temperature;BMP_pressure;BME280_temperature;BME280_humidity;BME280_pressure;Samples;Min_cycle;Max_cycle;Signal;HPM_P1;HPM_P2
2022/12/19 00:01:03;;;;;;;74.38;36.50;;;;;;;;;;5053820;28;20021;-67
2022/12/19 00:03:28;;;;;;;50.17;35.17;;;;;;;;;;5052571;28;20108;-67
2022/12/19 00:05:53;;;;;;;59.50;36.17;;;;;;;;;;5051711;28;20542;-67
2022/12/19 00:08:18;;;;;;;52.10;33.83;;;;;;;;;;5053149;28;20017;-67
2022/12/19 00:10:52;;;;;;;49.95;35.88;;;;;;;;;;5051544;28;20669;-67
2022/12/19 00:13:17;;;;;;;55.15;35.17;;;;;;;;;;5051138;28;20036;-67
2022/12/19 00:15:43;;;;;;;53.22;33.55;;;;;;;;;;5052617;28;20067;-67
2022/12/19 00:18:08;;;;;;;57.80;35.22;;;;;;;;;;5046953;28;20060;-67
2022/12/19 00:20:33;;;;;;;57.17;35.50;;;;;;;;;;5052527;28;20391;-67
2022/12/19 00:22:58;;;;;;;56.90;35.33;;;;;;;;;;5049195;28;20082;-66
2022/12/19 00:25:24;;;;;;;55.58;34.88;;;;;;;;;;5052246;28;20035;-67
2022/12/19 00:27:49;;;;;;;60.83;33.97;;;;;;;;;;5052636;28;20025;-67
2022/12/19 00:30:14;;;;;;;48.92;33.00;;;;;;;;;;5052717;28;20025;-66
2022/12/19 00:32:40;;;;;;;56.08;36.30;;;;;;;;;;5052988;28;20094;-66
2022/12/19 00:35:05;;;;;;;48.55;34.67;;;;;;;;;;5033877;28;20035;-67
2022/12/19 00:37:30;;;;;;;61.05;34.65;;;;;;;;;;5051178;28;20024;-67
2022/12/19 00:39:56;;;;;;;51.90;33.97;;;;;;;;;;5050788;28;20076;-66
2022/12/19 00:42:21;;;;;;;52.28;33.58;;;;;;;;;;5051427;28;20031;-66
2022/12/19 00:44:46;;;;;;;53.40;34.22;;;;;;;;;;5047913;28;20028;-66
2022/12/19 00:47:11;;;;;;;56.15;38.20;;;;;;;;;;5050864;28;20020;-67
2022/12/19 00:49:37;;;;;;;51.15;35.25;;;;;;;;;;5051648;28;20028;-66
2022/12/19 00:52:02;;;;;;;56.85;36.47;;;;;;;;;;5052020;28;20033;-66
2022/12/19 00:54:27;;;;;;;47.97;34.47;;;;;;;;;;5047943;28;20033;-66
2022/12/19 00:56:52;;;;;;;56.78;34.75;;;;;;;;;;5050477;28;20226;-66
2022/12/19 00:59:18;;;;;;;54.15;34.10;;;;;;;;;;5051037;28;20482;-66
2022/12/19 01:01:43;;;;;;;47.90;33.22;;;;;;;;;;5051558;28;20013;-65
2022/12/19 01:04:11;;;;;;;59.08;35.05;;;;;;;;;;5048993;28;20025;-65
2022/12/19 01:06:37;;;;;;;52.75;33.25;;;;;;;;;;5044997;28;20017;-65
2022/12/19 01:09:02;;;;;;;52.40;34.78;;;;;;;;;;5049464;28;20082;-65
2022/12/19 01:14:12;;;;;;;51.35;33.42;;;;;;;;;;5050371;28;20032;-63
2022/12/19 01:16:37;;;;;;;48.33;33.20;;;;;;;;;;5048328;28;20033;-65
2022/12/19 01:19:02;;;;;;;53.22;33.60;;;;;;;;;;5049539;28;20016;-65
2022/12/19 01:21:28;;;;;;;51.15;32.83;;;;;;;;;;5048886;28;20558;-66
2022/12/19 01:23:53;;;;;;;55.55;32.72;;;;;;;;;;5048034;28;20079;-65
2022/12/19 01:26:18;;;;;;;52.25;31.67;;;;;;;;;;5046397;28;20032;-65
2022/12/19 01:28:43;;;;;;;48.75;29.33;;;;;;;;;;5049767;28;20032;-65
2022/12/19 01:31:09;;;;;;;47.80;30.40;;;;;;;;;;5050965;28;20039;-64
2022/12/19 01:33:34;;;;;;;42.70;28.70;;;;;;;;;;5047906;28;20361;-64
2022/12/19 01:36:06;;;;;;;46.17;30.50;;;;;;;;;;5044626;28;20020;-65
2022/12/19 01:38:31;;;;;;;45.47;29.83;;;;;;;;;;5045817;28;20029;-65
2022/12/19 01:40:56;;;;;;;42.70;28.75;;;;;;;;;;5046047;28;20071;-65
2022/12/19 01:43:22;;;;;;;44.53;28.70;;;;;;;;;;5047086;28;20056;-65
2022/12/19 01:45:59;;;;;;;40.22;27.70;;;;;;;;;;5046030;28;20029;-66
2022/12/19 01:48:35;;;;;;;40.05;27.08;;;;;;;;;;5047692;28;20407;-65
2022/12/19 01:51:02;;;;;;;37.97;27.25;;;;;;;;;;5049005;28;20020;-66
2022/12/19 01:53:30;;;;;;;35.67;26.85;;;;;;;;;;5047857;28;20154;-66
2022/12/19 01:55:55;;;;;;;32.30;22.83;;;;;;;;;;5045899;28;20025;-65
2022/12/19 01:58:21;;;;;;;36.00;25.20;;;;;;;;;;5047037;28;20024;-65
2022/12/19 02:00:47;;;;;;;35.15;22.65;;;;;;;;;;5048069;28;20070;-65
2022/12/19 02:03:32;;;;;;;41.88;25.40;;;;;;;;;;5046248;28;20021;-65
2022/12/19 02:05:58;;;;;;;40.20;25.92;;;;;;;;;;5044632;28;20110;-65
2022/12/19 02:08:24;;;;;;;35.97;22.33;;;;;;;;;;5044966;28;20029;-66
2022/12/19 02:10:49;;;;;;;36.72;23.10;;;;;;;;;;5043210;28;20078;-66
2022/12/19 02:13:15;;;;;;;34.85;22.10;;;;;;;;;;5044496;28;20032;-65
2022/12/19 02:15:46;;;;;;;36.20;23.40;;;;;;;;;;5045213;28;20024;-67
2022/12/19 02:18:20;;;;;;;40.35;23.65;;;;;;;;;;5044226;28;20150;-65
2022/12/19 02:20:45;;;;;;;;;;;;;;;;;;5032758;28;20388;-65
2022/12/19 02:23:11;;;;;;;34.17;22.35;;;;;;;;;;5044801;28;20361;-65
2022/12/19 02:25:54;;;;;;;33.97;22.53;;;;;;;;;;5045838;28;20033;-65
2022/12/19 02:28:22;;;;;;;34.65;22.40;;;;;;;;;;5046205;28;20279;-65
2022/12/19 02:30:50;;;;;;;35.42;22.75;;;;;;;;;;5043671;28;20061;-64
2022/12/19 02:33:24;;;;;;;35.40;23.20;;;;;;;;;;5045945;28;20031;-65
2022/12/19 02:35:54;;;;;;;36.95;23.55;;;;;;;;;;5039053;28;20746;-64
2022/12/19 02:38:23;;;;;;;31.23;23.15;;;;;;;;;;5040367;28;20817;-64
2022/12/19 02:41:06;;;;;;;40.60;23.88;;;;;;;;;;5036818;28;20048;-64
2022/12/19 02:43:34;;;;;;;31.07;22.10;;;;;;;;;;5043474;28;20025;-64
2022/12/19 02:46:01;;;;;;;39.75;21.98;;;;;;;;;;5043374;28;20043;-64
2022/12/19 02:48:27;;;;;;;32.42;21.20;;;;;;;;;;5042757;28;20561;-65
2022/12/19 02:50:52;;;;;;;35.20;23.27;;;;;;;;;;5042967;28;20100;-65
2022/12/19 02:53:18;;;;;;;32.40;22.02;;;;;;;;;;5045469;28;20190;-64
2022/12/19 02:55:49;;;;;;;32.60;23.17;;;;;;;;;;5045968;28;20021;-64
2022/12/19 02:58:25;;;;;;;33.85;22.50;;;;;;;;;;5045150;28;20359;-64
2022/12/19 03:00:57;;;;;;;31.63;22.35;;;;;;;;;;5044950;28;20558;-64
2022/12/19 03:03:43;;;;;;;34.00;22.98;;;;;;;;;;5043373;28;20050;-64
2022/12/19 03:06:18;;;;;;;36.00;22.17;;;;;;;;;;5029369;28;20037;-64
2022/12/19 03:08:51;;;;;;;31.02;21.02;;;;;;;;;;5042930;28;20039;-65
2022/12/19 03:11:17;;;;;;;36.72;23.05;;;;;;;;;;5041350;28;20033;-64
2022/12/19 03:13:54;;;;;;;33.95;23.45;;;;;;;;;;5042784;28;20023;-63
2022/12/19 03:16:20;;;;;;;37.38;22.90;;;;;;;;;;5045049;28;20086;-64
2022/12/19 03:18:45;;;;;;;31.55;20.20;;;;;;;;;;5041720;28;20459;-64
2022/12/19 03:21:16;;;;;;;31.50;22.33;;;;;;;;;;5036610;28;20023;-64
2022/12/19 03:23:42;;;;;;;38.90;21.85;;;;;;;;;;5043295;28;20499;-64
2022/12/19 03:26:10;;;;;;;33.15;20.13;;;;;;;;;;5036421;28;20013;-65
2022/12/19 03:28:44;;;;;;;34.05;22.83;;;;;;;;;;5042064;28;20577;-63
2022/12/19 03:31:10;;;;;;;35.28;22.08;;;;;;;;;;5042897;28;20029;-64
2022/12/19 03:33:38;;;;;;;34.47;21.67;;;;;;;;;;5043085;28;20036;-64
2022/12/19 03:36:06;;;;;;;33.38;22.25;;;;;;;;;;5047428;28;20842;-63
2022/12/19 03:38:32;;;;;;;37.03;22.95;;;;;;;;;;5039241;28;20025;-64
2022/12/19 03:40:58;;;;;;;31.10;21.90;;;;;;;;;;5042053;28;20413;-63
2022/12/19 03:43:25;;;;;;;37.97;22.35;;;;;;;;;;5041151;28;20025;-63
2022/12/19 03:45:56;;;;;;;31.38;20.98;;;;;;;;;;5042363;28;20036;-64
2022/12/19 03:48:38;;;;;;;31.90;22.80;;;;;;;;;;5040899;28;20040;-64
2022/12/19 03:51:07;;;;;;;32.92;21.58;;;;;;;;;;5042438;28;20025;-63
2022/12/19 03:53:38;;;;;;;27.58;22.23;;;;;;;;;;5030662;28;20024;-63
2022/12/19 03:56:15;;;;;;;31.85;22.08;;;;;;;;;;5035350;28;20309;-63
2022/12/19 03:58:44;;;;;;;38.22;23.33;;;;;;;;;;5031841;28;20027;-62
2022/12/19 04:01:09;;;;;;;30.75;22.90;;;;;;;;;;5041913;28;20037;-62
2022/12/19 04:03:35;;;;;;;32.00;22.88;;;;;;;;;;5040810;28;20033;-63
2022/12/19 04:06:01;;;;;;;29.67;22.20;;;;;;;;;;5041828;28;20028;-63
2022/12/19 04:08:27;;;;;;;33.50;21.83;;;;;;;;;;5033982;28;20028;-62
2022/12/19 04:10:56;;;;;;;32.92;22.52;;;;;;;;;;5040724;28;20021;-63
2022/12/19 04:13:29;;;;;;;31.35;21.45;;;;;;;;;;5036359;28;20785;-63
2022/12/19 04:16:01;;;;;;;31.58;21.55;;;;;;;;;;5038407;28;20021;-63
2022/12/19 04:18:26;;;;;;;27.88;20.60;;;;;;;;;;5047495;28;20103;-63
2022/12/19 04:20:55;;;;;;;29.45;20.50;;;;;;;;;;5043621;28;20070;-63
2022/12/19 04:23:27;;;;;;;28.85;21.00;;;;;;;;;;5045214;28;20029;-63
2022/12/19 04:25:56;;;;;;;35.50;21.98;;;;;;;;;;5046026;28;20033;-63
2022/12/19 04:28:25;;;;;;;32.63;23.08;;;;;;;;;;5048376;28;20814;-63
2022/12/19 04:30:50;;;;;;;28.02;22.23;;;;;;;;;;5048731;28;20056;-63
2022/12/19 04:33:15;;;;;;;27.70;20.65;;;;;;;;;;5048680;28;20107;-63
2022/12/19 04:35:41;;;;;;;29.23;21.13;;;;;;;;;;5048236;28;20021;-63
2022/12/19 04:38:06;;;;;;;34.58;22.38;;;;;;;;;;5048828;28;20490;-63
2022/12/19 04:40:32;;;;;;;28.02;21.58;;;;;;;;;;5048231;28;20108;-63
2022/12/19 04:42:58;;;;;;;30.52;20.15;;;;;;;;;;5047311;28;20112;-63
2022/12/19 04:45:23;;;;;;;29.80;20.05;;;;;;;;;;5046847;28;20528;-63
2022/12/19 04:47:48;;;;;;;32.28;21.85;;;;;;;;;;5046527;28;20041;-63
2022/12/19 04:50:13;;;;;;;34.17;21.17;;;;;;;;;;5046356;28;20033;-63
2022/12/19 04:52:39;;;;;;;30.30;20.50;;;;;;;;;;5047923;28;20049;-63
2022/12/19 04:55:04;;;;;;;25.85;18.27;;;;;;;;;;5048284;28;20045;-63
2022/12/19 04:57:30;;;;;;;29.58;20.63;;;;;;;;;;5045379;28;20581;-63
2022/12/19 04:59:55;;;;;;;28.30;19.13;;;;;;;;;;5045229;28;20017;-63
2022/12/19 05:02:21;;;;;;;27.15;18.45;;;;;;;;;;5046175;28;20056;-63
2022/12/19 05:04:46;;;;;;;29.70;20.20;;;;;;;;;;5044654;28;20071;-64
2022/12/19 05:07:12;;;;;;;28.10;20.00;;;;;;;;;;5047012;28;20074;-63
2022/12/19 05:09:37;;;;;;;26.67;20.02;;;;;;;;;;5046898;28;20117;-64
2022/12/19 05:12:02;;;;;;;32.38;20.23;;;;;;;;;;5044876;28;20067;-64
2022/12/19 05:14:27;;;;;;;31.95;20.27;;;;;;;;;;5046474;28;20486;-64
2022/12/19 05:16:53;;;;;;;25.85;17.98;;;;;;;;;;5047004;28;20025;-64
2022/12/19 05:19:18;;;;;;;24.27;18.70;;;;;;;;;;5046839;28;20128;-64
2022/12/19 05:21:44;;;;;;;26.63;18.45;;;;;;;;;;5047394;28;20033;-64
2022/12/19 05:24:09;;;;;;;25.80;16.27;;;;;;;;;;5039791;28;20029;-64
2022/12/19 05:26:34;;;;;;;26.13;18.88;;;;;;;;;;5044022;28;20552;-63
2022/12/19 05:28:59;;;;;;;20.90;16.60;;;;;;;;;;5044749;28;20063;-64
2022/12/19 05:31:25;;;;;;;21.00;17.40;;;;;;;;;;5045133;28;20029;-63
2022/12/19 05:33:50;;;;;;;24.80;18.08;;;;;;;;;;5043861;28;20028;-62
2022/12/19 05:36:16;;;;;;;21.85;17.17;;;;;;;;;;5042292;28;20023;-63
2022/12/19 05:38:42;;;;;;;20.80;15.82;;;;;;;;;;5042469;28;20133;-63
2022/12/19 05:41:11;;;;;;;24.00;17.65;;;;;;;;;;5045018;28;20072;-64
2022/12/19 05:43:36;;;;;;;21.08;17.25;;;;;;;;;;5044867;28;20020;-63
2022/12/19 05:46:05;;;;;;;18.15;15.95;;;;;;;;;;5043498;28;20086;-64
2022/12/19 05:48:30;;;;;;;21.25;16.13;;;;;;;;;;5043905;28;20040;-63
2022/12/19 05:50:56;;;;;;;21.38;15.35;;;;;;;;;;5045951;28;20017;-64
2022/12/19 05:53:21;;;;;;;20.17;14.77;;;;;;;;;;5044630;28;20043;-64
2022/12/19 05:55:47;;;;;;;28.83;15.95;;;;;;;;;;5043665;28;20055;-64
2022/12/19 05:58:12;;;;;;;22.83;15.15;;;;;;;;;;5043345;28;20025;-63
2022/12/19 06:00:37;;;;;;;17.55;14.25;;;;;;;;;;5042453;28;20025;-63
2022/12/19 06:03:02;;;;;;;23.10;14.00;;;;;;;;;;5045333;28;20040;-63
2022/12/19 06:05:28;;;;;;;19.40;14.75;;;;;;;;;;5043604;28;20052;-63
2022/12/19 06:07:53;;;;;;;19.13;14.45;;;;;;;;;;5036635;28;20546;-63
2022/12/19 06:10:18;;;;;;;18.88;14.13;;;;;;;;;;5039070;28;20025;-63
2022/12/19 06:12:43;;;;;;;18.08;13.93;;;;;;;;;;5041841;28;20020;-64
2022/12/19 06:15:09;;;;;;;13.95;11.98;;;;;;;;;;5043180;28;20584;-64
2022/12/19 06:17:34;;;;;;;16.33;12.57;;;;;;;;;;5042168;28;20029;-63
2022/12/19 06:19:59;;;;;;;19.20;13.13;;;;;;;;;;5040469;28;20028;-63
2022/12/19 06:22:24;;;;;;;21.17;12.93;;;;;;;;;;5043502;28;20032;-63
2022/12/19 06:24:50;;;;;;;16.10;13.35;;;;;;;;;;5042114;28;20072;-63
2022/12/19 06:27:15;;;;;;;16.33;12.40;;;;;;;;;;5040727;28;20029;-64
2022/12/19 06:29:40;;;;;;;18.25;14.05;;;;;;;;;;5042754;28;20450;-64
2022/12/19 06:32:05;;;;;;;16.95;13.43;;;;;;;;;;5040218;28;20060;-63
2022/12/19 06:34:31;;;;;;;18.70;13.43;;;;;;;;;;5043158;28;20483;-63
2022/12/19 06:36:56;;;;;;;17.65;12.18;;;;;;;;;;5042934;28;20025;-64
2022/12/19 06:39:22;;;;;;;19.95;13.48;;;;;;;;;;5039512;28;20115;-64
2022/12/19 06:44:31;;;;;;;20.07;12.50;;;;;;;;;;5044270;28;20593;-64
2022/12/19 06:46:56;;;;;;;16.13;11.88;;;;;;;;;;5042689;28;20029;-64
2022/12/19 06:49:21;;;;;;;15.52;12.30;;;;;;;;;;5036855;28;20083;-64
2022/12/19 06:51:47;;;;;;;15.65;11.93;;;;;;;;;;5012106;28;20033;-65
2022/12/19 06:54:12;;;;;;;14.98;12.40;;;;;;;;;;5040196;28;20029;-64
2022/12/19 06:56:38;;;;;;;16.83;12.43;;;;;;;;;;5039021;28;20032;-64
2022/12/19 06:59:04;;;;;;;15.40;11.45;;;;;;;;;;5028691;28;20017;-65
2022/12/19 07:01:48;;;;;;;20.50;11.93;;;;;;;;;;5040972;28;20035;-64
2022/12/19 07:04:15;;;;;;;16.17;11.98;;;;;;;;;;5037793;28;20032;-64
2022/12/19 07:06:41;;;;;;;13.48;11.10;;;;;;;;;;5045293;28;20198;-64
2022/12/19 07:09:06;;;;;;;17.17;11.63;;;;;;;;;;5045998;28;20620;-65
2022/12/19 07:11:31;;;;;;;14.75;10.80;;;;;;;;;;5046038;28;20824;-64
2022/12/19 07:13:56;;;;;;;16.15;11.13;;;;;;;;;;5046288;28;20387;-65
2022/12/19 07:16:22;;;;;;;13.23;11.48;;;;;;;;;;5044094;28;20020;-66
2022/12/19 07:18:48;;;;;;;13.30;10.55;;;;;;;;;;5045018;28;20079;-66
2022/12/19 07:21:13;;;;;;;15.82;10.15;;;;;;;;;;5045821;28;20051;-65
2022/12/19 07:23:39;;;;;;;16.92;11.27;;;;;;;;;;5046561;28;20082;-65
2022/12/19 07:26:04;;;;;;;17.92;10.32;;;;;;;;;;5045481;28;20035;-64
2022/12/19 07:28:31;;;;;;;14.85;11.05;;;;;;;;;;5044774;28;20120;-64
2022/12/19 07:30:56;;;;;;;11.65;9.35;;;;;;;;;;5032733;28;20020;-64
2022/12/19 07:33:22;;;;;;;11.00;9.10;;;;;;;;;;5043796;28;20090;-64
2022/12/19 07:35:47;;;;;;;13.55;9.75;;;;;;;;;;5043633;28;20267;-64
2022/12/19 07:38:12;;;;;;;14.47;9.77;;;;;;;;;;5045589;28;20017;-65
2022/12/19 07:40:37;;;;;;;16.00;9.75;;;;;;;;;;5044732;28;20283;-64
2022/12/19 07:43:04;;;;;;;13.40;8.88;;;;;;;;;;5046468;28;20075;-65
2022/12/19 07:45:30;;;;;;;13.05;8.45;;;;;;;;;;5045534;28;20017;-64
2022/12/19 07:47:58;;;;;;;12.75;9.07;;;;;;;;;;5044641;28;20037;-65
2022/12/19 07:50:23;;;;;;;16.05;8.57;;;;;;;;;;5039673;28;20033;-64
2022/12/19 07:52:48;;;;;;;10.07;8.60;;;;;;;;;;5045615;28;20040;-64
2022/12/19 07:55:14;;;;;;;15.85;9.45;;;;;;;;;;5052235;28;20035;-64
2022/12/19 07:57:39;;;;;;;10.35;8.30;;;;;;;;;;5051519;28;20136;-64
2022/12/19 08:00:05;;;;;;;12.15;8.55;;;;;;;;;;5049359;28;20406;-65
2022/12/19 08:02:30;;;;;;;12.23;7.43;;;;;;;;;;5047485;28;20023;-65
2022/12/19 08:04:55;;;;;;;10.48;7.75;;;;;;;;;;5047830;28;20020;-65
2022/12/19 08:07:21;;;;;;;11.40;7.85;;;;;;;;;;5046489;28;21265;-65
2022/12/19 08:09:46;;;;;;;9.60;7.85;;;;;;;;;;5050321;28;20024;-65
2022/12/19 08:12:11;;;;;;;11.60;7.82;;;;;;;;;;5046559;28;20060;-65
2022/12/19 08:14:37;;;;;;;13.82;7.05;;;;;;;;;;5037581;28;20049;-65
2022/12/19 08:17:02;;;;;;;14.15;7.53;;;;;;;;;;5051314;28;20568;-67
2022/12/19 08:19:27;;;;;;;10.23;7.43;;;;;;;;;;5048295;28;20028;-64
2022/12/19 08:21:53;;;;;;;10.27;7.82;;;;;;;;;;5050330;28;20904;-65
2022/12/19 08:24:18;;;;;;;14.85;7.68;;;;;;;;;;5052421;28;20021;-65
2022/12/19 08:26:43;;;;;;;12.15;8.32;;;;;;;;;;5048996;28;20116;-65
2022/12/19 08:29:08;;;;;;;10.88;7.50;;;;;;;;;;5048273;28;20048;-65
2022/12/19 08:31:34;;;;;;;9.75;7.18;;;;;;;;;;5049753;28;20069;-65
2022/12/19 08:33:59;;;;;;;11.93;6.50;;;;;;;;;;5050576;28;20048;-65
2022/12/19 08:36:24;;;;;;;10.60;6.78;;;;;;;;;;5048830;28;20476;-64
2022/12/19 08:38:50;;;;;;;11.70;7.32;;;;;;;;;;5051139;28;20021;-65
2022/12/19 08:41:15;;;;;;;8.95;6.35;;;;;;;;;;5051714;28;20029;-64
2022/12/19 08:43:41;;;;;;;9.80;6.15;;;;;;;;;;5049057;28;20029;-63
2022/12/19 08:46:06;;;;;;;8.30;6.82;;;;;;;;;;5048214;28;20493;-63
2022/12/19 08:48:32;;;;;;;8.30;6.00;;;;;;;;;;5051078;28;20037;-64
2022/12/19 08:50:59;;;;;;;7.28;5.68;;;;;;;;;;5045355;28;20032;-66
2022/12/19 08:53:25;;;;;;;8.13;5.05;;;;;;;;;;5046184;28;20063;-66
2022/12/19 08:55:54;;;;;;;8.15;5.35;;;;;;;;;;5047430;28;20104;-66
2022/12/19 08:58:20;;;;;;;10.48;6.13;;;;;;;;;;5032362;28;20033;-63
2022/12/19 09:00:45;;;;;;;11.02;5.85;;;;;;;;;;5041507;28;20020;-64
2022/12/19 09:03:10;;;;;;;8.23;5.13;;;;;;;;;;5046923;28;20017;-65
2022/12/19 09:05:36;;;;;;;8.43;4.65;;;;;;;;;;5049648;28;20538;-65
2022/12/19 09:08:02;;;;;;;8.75;5.15;;;;;;;;;;5046974;28;20009;-65
2022/12/19 09:10:29;;;;;;;7.28;5.03;;;;;;;;;;5045906;28;20029;-64
2022/12/19 09:12:54;;;;;;;7.80;4.53;;;;;;;;;;5048214;28;20830;-68
2022/12/19 09:15:19;;;;;;;5.97;4.40;;;;;;;;;;5041494;28;20017;-67
2022/12/19 09:17:45;;;;;;;8.18;4.18;;;;;;;;;;5037344;28;20123;-66
2022/12/19 09:20:10;;;;;;;9.23;4.65;;;;;;;;;;5047534;28;20023;-67
2022/12/19 09:22:35;;;;;;;6.53;4.50;;;;;;;;;;5050675;28;20024;-67
2022/12/19 09:25:00;;;;;;;7.77;3.83;;;;;;;;;;5051682;28;20424;-66
2022/12/19 09:27:26;;;;;;;7.28;4.35;;;;;;;;;;5051824;28;20713;-66
2022/12/19 09:29:51;;;;;;;8.60;4.80;;;;;;;;;;5051693;28;20021;-66
2022/12/19 09:32:16;;;;;;;6.07;3.90;;;;;;;;;;5050186;28;20025;-66
2022/12/19 09:34:41;;;;;;;4.88;3.75;;;;;;;;;;5050671;28;20020;-67
2022/12/19 09:37:07;;;;;;;10.52;4.05;;;;;;;;;;5048516;28;20433;-66
2022/12/19 09:39:34;;;;;;;7.30;4.03;;;;;;;;;;5049013;28;20049;-66
2022/12/19 09:42:02;;;;;;;5.55;3.60;;;;;;;;;;5049871;28;20033;-66
2022/12/19 09:44:44;;;;;;;7.75;4.75;;;;;;;;;;5049241;28;20021;-67
2022/12/19 09:47:12;;;;;;;6.20;3.53;;;;;;;;;;5048571;28;20041;-69
2022/12/19 09:49:38;;;;;;;7.63;3.78;;;;;;;;;;5048546;28;20029;-68
2022/12/19 09:52:06;;;;;;;6.18;3.92;;;;;;;;;;5051634;28;20479;-68
2022/12/19 09:54:37;;;;;;;10.77;3.63;;;;;;;;;;5051420;28;20025;-69
2022/12/19 09:57:11;;;;;;;4.22;3.22;;;;;;;;;;5049837;28;20078;-68
2022/12/19 09:59:45;;;;;;;8.15;3.92;;;;;;;;;;5043394;28;20047;-65
2022/12/19 10:02:33;;;;;;;4.63;3.00;;;;;;;;;;5051998;28;20021;-64
2022/12/19 10:05:03;;;;;;;5.63;3.50;;;;;;;;;;5052494;28;20036;-64
2022/12/19 10:07:29;;;;;;;6.28;3.45;;;;;;;;;;5052298;28;20112;-64
2022/12/19 10:09:54;;;;;;;5.97;3.40;;;;;;;;;;5050885;28;20095;-65
2022/12/19 10:12:20;;;;;;;5.45;3.13;;;;;;;;;;5047639;28;20043;-65
2022/12/19 10:15:02;;;;;;;6.20;3.03;;;;;;;;;;5051914;28;20021;-64
2022/12/19 10:17:50;;;;;;;4.78;2.97;;;;;;;;;;5050776;28;20279;-65
2022/12/19 10:20:22;;;;;;;4.68;2.88;;;;;;;;;;5046207;28;20037;-65
2022/12/19 10:22:47;;;;;;;4.35;2.67;;;;;;;;;;5050491;28;20365;-65
2022/12/19 10:25:19;;;;;;;4.90;3.30;;;;;;;;;;5050719;28;20020;-65
2022/12/19 10:27:47;;;;;;;8.73;3.08;;;;;;;;;;5048953;28;20390;-66
2022/12/19 10:30:12;;;;;;;5.70;3.00;;;;;;;;;;5049606;28;20056;-70
2022/12/19 10:32:43;;;;;;;4.20;2.85;;;;;;;;;;5050339;28;20443;-65
2022/12/19 10:35:13;;;;;;;3.58;2.55;;;;;;;;;;5050741;28;20056;-66
2022/12/19 10:37:49;;;;;;;6.90;3.10;;;;;;;;;;5051632;28;20025;-66
2022/12/19 10:40:36;;;;;;;4.18;2.70;;;;;;;;;;5051267;28;20440;-67
2022/12/19 10:43:09;;;;;;;3.80;2.40;;;;;;;;;;5047960;28;20107;-66
2022/12/19 10:45:40;;;;;;;3.65;2.30;;;;;;;;;;5034812;28;20034;-66
2022/12/19 10:48:09;;;;;;;4.97;2.63;;;;;;;;;;5050990;28;20491;-65
2022/12/19 10:50:35;;;;;;;5.95;3.08;;;;;;;;;;5044575;28;20074;-65
2022/12/19 10:53:02;;;;;;;8.63;2.83;;;;;;;;;;5049516;28;20110;-65
2022/12/19 10:55:27;;;;;;;7.20;3.27;;;;;;;;;;5049436;28;20017;-65
2022/12/19 10:57:56;;;;;;;4.30;2.65;;;;;;;;;;5049323;28;20267;-65
2022/12/19 11:00:21;;;;;;;3.50;2.35;;;;;;;;;;5049532;28;20142;-64
2022/12/19 11:02:49;;;;;;;3.70;2.22;;;;;;;;;;5049243;28;20459;-65
2022/12/19 11:05:28;;;;;;;5.32;2.65;;;;;;;;;;5050617;28;20021;-65
2022/12/19 11:08:06;;;;;;;4.60;2.55;;;;;;;;;;5050444;28;20434;-65
2022/12/19 11:10:42;;;;;;;4.78;2.60;;;;;;;;;;5047929;28;20028;-66
2022/12/19 11:13:23;;;;;;;6.13;2.63;;;;;;;;;;5049426;28;20115;-65
2022/12/19 11:15:50;;;;;;;3.35;2.28;;;;;;;;;;5051014;28;20656;-64
2022/12/19 11:18:15;;;;;;;4.90;2.63;;;;;;;;;;5050685;28;20040;-65
2022/12/19 11:20:52;;;;;;;8.10;3.10;;;;;;;;;;5050228;28;20052;-65
2022/12/19 11:23:17;;;;;;;5.00;2.63;;;;;;;;;;5041081;28;20478;-64
2022/12/19 11:25:42;;;;;;;5.68;2.60;;;;;;;;;;5051409;28;20017;-65
2022/12/19 11:28:28;;;;;;;4.57;2.53;;;;;;;;;;5050331;28;20020;-64
2022/12/19 11:30:56;;;;;;;4.63;2.40;;;;;;;;;;5039168;28;20039;-64
2022/12/19 11:33:21;;;;;;;4.15;2.40;;;;;;;;;;5050056;28;20028;-64
2022/12/19 11:35:54;;;;;;;3.90;2.05;;;;;;;;;;5051175;28;20108;-64
2022/12/19 11:38:38;;;;;;;11.32;2.10;;;;;;;;;;5050896;28;20431;-64
2022/12/19 11:41:09;;;;;;;3.93;2.30;;;;;;;;;;5048562;28;20113;-64
2022/12/19 11:43:41;;;;;;;7.35;2.65;;;;;;;;;;5051342;28;20059;-64
2022/12/19 11:46:24;;;;;;;3.80;2.10;;;;;;;;;;5038679;28;20510;-64
2022/12/19 11:49:08;;;;;;;5.32;2.28;;;;;;;;;;5040386;28;20044;-65
2022/12/19 11:51:40;;;;;;;6.80;2.10;;;;;;;;;;5048965;28;20102;-65
2022/12/19 11:54:24;;;;;;;7.93;2.45;;;;;;;;;;5049863;28;20379;-64
2022/12/19 11:56:49;;;;;;;5.53;2.30;;;;;;;;;;5049471;28;20016;-65
2022/12/19 11:59:19;;;;;;;3.70;2.00;;;;;;;;;;5042788;28;20163;-64
2022/12/19 12:01:44;;;;;;;3.47;2.05;;;;;;;;;;5050311;28;20031;-65
2022/12/19 12:04:28;;;;;;;5.28;2.25;;;;;;;;;;5048291;28;20523;-65
2022/12/19 12:06:55;;;;;;;3.70;2.05;;;;;;;;;;5048864;28;20021;-65
2022/12/19 12:09:39;;;;;;;3.67;2.08;;;;;;;;;;5048175;28;20025;-65
2022/12/19 12:12:23;;;;;;;4.28;2.00;;;;;;;;;;5038994;28;20079;-65
2022/12/19 12:14:48;;;;;;;5.03;2.40;;;;;;;;;;5049435;28;20021;-65
2022/12/19 12:17:19;;;;;;;4.40;2.30;;;;;;;;;;5049518;28;20040;-65
2022/12/19 12:20:03;;;;;;;4.93;2.35;;;;;;;;;;5049363;28;20028;-65
2022/12/19 12:22:47;;;;;;;7.40;2.50;;;;;;;;;;5049308;28;20020;-65
2022/12/19 12:25:18;;;;;;;4.18;2.38;;;;;;;;;;5051492;28;20264;-66
2022/12/19 12:27:55;;;;;;;4.72;1.80;;;;;;;;;;5048386;28;20085;-65
2022/12/19 12:30:21;;;;;;;4.65;2.08;;;;;;;;;;5048406;28;20561;-65
2022/12/19 12:32:46;;;;;;;3.00;1.83;;;;;;;;;;5048529;28;20037;-65
2022/12/19 12:35:15;;;;;;;3.53;2.03;;;;;;;;;;5048617;28;20021;-64
2022/12/19 12:37:49;;;;;;;3.17;1.80;;;;;;;;;;5046802;28;20796;-65
2022/12/19 12:40:14;;;;;;;2.90;1.70;;;;;;;;;;5045469;28;20395;-65
2022/12/19 12:42:51;;;;;;;2.85;1.83;;;;;;;;;;5052521;28;20025;-66
2022/12/19 12:45:22;;;;;;;5.00;2.55;;;;;;;;;;5027414;28;20035;-65
2022/12/19 12:47:49;;;;;;;4.80;2.00;;;;;;;;;;5052632;28;20033;-65
2022/12/19 12:50:16;;;;;;;4.00;2.13;;;;;;;;;;5048777;28;20440;-65
2022/12/19 12:52:44;;;;;;;4.30;1.75;;;;;;;;;;5050969;28;20024;-65
2022/12/19 12:55:28;;;;;;;3.15;1.67;;;;;;;;;;5053144;28;20027;-64
2022/12/19 12:57:54;;;;;;;4.72;1.98;;;;;;;;;;5052034;28;20094;-64
2022/12/19 13:00:22;;;;;;;5.32;1.95;;;;;;;;;;5049339;28;20431;-65
2022/12/19 13:02:57;;;;;;;6.85;2.42;;;;;;;;;;5053502;28;20429;-64
2022/12/19 13:05:22;;;;;;;;;;;;;;;;;;5022133;28;20027;-65
2022/12/19 13:07:51;;;;;;;3.27;1.90;;;;;;;;;;5012678;28;20778;-65
2022/12/19 13:10:19;;;;;;;3.42;1.75;;;;;;;;;;5053382;28;20031;-65
2022/12/19 13:13:03;;;;;;;2.97;1.77;;;;;;;;;;5051970;28;20017;-65
2022/12/19 13:15:31;;;;;;;3.60;1.73;;;;;;;;;;5046204;28;20021;-65
2022/12/19 13:18:00;;;;;;;3.47;1.75;;;;;;;;;;5048552;28;20022;-66
2022/12/19 13:20:26;;;;;;;4.50;1.95;;;;;;;;;;5051110;28;20017;-66
2022/12/19 13:22:57;;;;;;;4.07;1.67;;;;;;;;;;5049380;28;20027;-65
2022/12/19 13:25:25;;;;;;;4.35;1.80;;;;;;;;;;5052889;28;20773;-66
2022/12/19 13:27:55;;;;;;;4.30;2.35;;;;;;;;;;5052115;28;20479;-65
2022/12/19 13:30:20;;;;;;;4.20;1.88;;;;;;;;;;5052767;28;20104;-66
2022/12/19 13:32:45;;;;;;;3.30;1.80;;;;;;;;;;5049689;28;20123;-70
2022/12/19 13:35:11;;;;;;;3.15;1.70;;;;;;;;;;5052396;28;20031;-65
2022/12/19 13:37:44;;;;;;;4.63;2.17;;;;;;;;;;5052003;28;20375;-66
2022/12/19 13:40:27;;;;;;;5.13;2.25;;;;;;;;;;5048380;28;20106;-66
2022/12/19 13:45:58;;;;;;;3.50;1.92;;;;;;;;;;5039726;28;20081;-66
2022/12/19 13:48:40;;;;;;;4.97;1.88;;;;;;;;;;5049687;28;20040;-73
2022/12/19 13:51:06;;;;;;;6.55;2.53;;;;;;;;;;5050703;28;20021;-72
2022/12/19 13:53:32;;;;;;;3.28;1.92;;;;;;;;;;5051108;28;20375;-64
2022/12/19 13:56:05;;;;;;;3.90;2.40;;;;;;;;;;5049589;28;20039;-65
2022/12/19 13:58:42;;;;;;;3.55;1.77;;;;;;;;;;5048144;28;20029;-65
2022/12/19 14:01:12;;;;;;;2.75;1.83;;;;;;;;;;5050232;28;20071;-67
2022/12/19 14:03:39;;;;;;;3.50;1.95;;;;;;;;;;5033865;28;20077;-68
2022/12/19 14:06:09;;;;;;;4.20;2.10;;;;;;;;;;5045985;28;20020;-67
2022/12/19 14:08:35;;;;;;;3.63;2.15;;;;;;;;;;5043163;28;20027;-67
2022/12/19 14:11:01;;;;;;;4.15;2.35;;;;;;;;;;5052445;28;20073;-67
2022/12/19 14:16:13;;;;;;;4.55;2.45;;;;;;;;;;5053315;28;20036;-67
2022/12/19 14:18:39;;;;;;;5.47;1.98;;;;;;;;;;5051596;28;20024;-67
2022/12/19 14:21:16;;;;;;;4.70;2.40;;;;;;;;;;5050120;28;20009;-67
2022/12/19 14:23:41;;;;;;;7.03;2.08;;;;;;;;;;5050321;28;20391;-67
2022/12/19 14:26:16;;;;;;;3.35;2.28;;;;;;;;;;5049968;28;20024;-67
2022/12/19 14:28:46;;;;;;;3.75;2.15;;;;;;;;;;5049459;28;20546;-66
2022/12/19 14:31:15;;;;;;;3.53;2.08;;;;;;;;;;5047514;28;20428;-64
2022/12/19 14:33:45;;;;;;;7.72;2.08;;;;;;;;;;5039802;28;20033;-68
2022/12/19 14:36:10;;;;;;;4.63;2.40;;;;;;;;;;5045640;28;20161;-66
2022/12/19 14:38:36;;;;;;;6.55;2.28;;;;;;;;;;5050434;28;20523;-69
2022/12/19 14:41:02;;;;;;;3.92;1.80;;;;;;;;;;5050349;28;20017;-70
2022/12/19 14:43:37;;;;;;;4.32;2.40;;;;;;;;;;5051025;28;20372;-66
2022/12/19 14:46:10;;;;;;;4.65;2.53;;;;;;;;;;5050957;28;20513;-65